sensor_id;sensor_type;location;lat;lon;timestamp;temperature;humidity
14908;DHT22;7545;52.092;7.006;2023-12-14T00:01:32;7.60;99.90
14908;DHT22;7545;52.092;7.006;2023-12-14T00:03:57;7.60;99.90
14908;DHT22;7545;52.092;7.006;2023-12-14T00:06:23;7.60;99.90
14908;DHT22;7545;52.092;7.006;2023-12-14T00:08:48;7.60;99.90
14908;DHT22;7545;52.092;7.006;2023-12-14T00:11:14;7.50;99.90
14908;DHT22;7545;52.092;7.006;2023-12-14T00:13:40;7.40;99.90
14908;DHT22;7545;52.092;7.006;2023-12-14T00:16:06;7.40;99.90
14908;DHT22;7545;52.092;7.006;2023-12-14T00:18:32;7.40;99.90
14908;DHT22;7545;52.092;7.006;2023-12-14T00:20:57;7.40;99.90
14908;DHT22;7545;52.092;7.006;2023-12-14T00:23:23;7.40;99.90
14908;DHT22;7545;52.092;7.006;2023-12-14T00:25:49;7.40;99.90
14908;DHT22;7545;52.092;7.006;2023-12-14T00:28:15;7.40;99.90
14908;DHT22;7545;52.092;7.006;2023-12-14T00:30:40;7.40;99.90
14908;DHT22;7545;52.092;7.006;2023-12-14T00:33:06;7.40;99.90
14908;DHT22;7545;52.092;7.006;2023-12-14T00:35:32;7.40;99.90
14908;DHT22;7545;52.092;7.006;2023-12-14T00:37:57;7.40;99.90
14908;DHT22;7545;52.092;7.006;2023-12-14T00:40:23;7.40;99.90
14908;DHT22;7545;52.092;7.006;2023-12-14T00:42:48;7.40;99.90
14908;DHT22;7545;52.092;7.006;2023-12-14T00:45:14;7.40;99.90
14908;DHT22;7545;52.092;7.006;2023-12-14T00:47:39;7.40;99.90
14908;DHT22;7545;52.092;7.006;2023-12-14T00:50:06;7.40;99.90
14908;DHT22;7545;52.092;7.006;2023-12-14T00:52:31;7.40;99.90
14908;DHT22;7545;52.092;7.006;2023-12-14T00:54:57;7.30;99.90
14908;DHT22;7545;52.092;7.006;2023-12-14T00:57:22;7.30;99.90
14908;DHT22;7545;52.092;7.006;2023-12-14T00:59:48;7.30;99.90
14908;DHT22;7545;52.092;7.006;2023-12-14T01:02:13;7.30;99.90
14908;DHT22;7545;52.092;7.006;2023-12-14T01:04:39;7.20;99.90
14908;DHT22;7545;52.092;7.006;2023-12-14T01:07:05;7.20;99.90
14908;DHT22;7545;52.092;7.006;2023-12-14T01:09:30;7.20;99.90
14908;DHT22;7545;52.092;7.006;2023-12-14T01:11:56;7.10;99.90
14908;DHT22;7545;52.092;7.006;2023-12-14T01:14:21;7.00;99.90
14908;DHT22;7545;52.092;7.006;2023-12-14T01:16:47;7.00;99.90
14908;DHT22;7545;52.092;7.006;2023-12-14T01:19:13;7.00;99.90
14908;DHT22;7545;52.092;7.006;2023-12-14T01:21:38;7.00;99.90
14908;DHT22;7545;52.092;7.006;2023-12-14T01:24:04;6.90;99.90
14908;DHT22;7545;52.092;7.006;2023-12-14T01:26:30;6.90;99.90
14908;DHT22;7545;52.092;7.006;2023-12-14T01:28:55;7.00;99.90
14908;DHT22;7545;52.092;7.006;2023-12-14T01:31:21;7.00;99.90
14908;DHT22;7545;52.092;7.006;2023-12-14T01:33:50;6.90;99.90
14908;DHT22;7545;52.092;7.006;2023-12-14T01:36:23;6.90;99.90
14908;DHT22;7545;52.092;7.006;2023-12-14T01:38:49;6.90;99.90
14908;DHT22;7545;52.092;7.006;2023-12-14T01:41:14;6.90;99.90
14908;DHT22;7545;52.092;7.006;2023-12-14T01:43:40;7.00;99.90
14908;DHT22;7545;52.092;7.006;2023-12-14T01:46:06;6.90;99.90
14908;DHT22;7545;52.092;7.006;2023-12-14T01:48:31;7.00;99.90
14908;DHT22;7545;52.092;7.006;2023-12-14T01:50:57;6.90;99.90
14908;DHT22;7545;52.092;7.006;2023-12-14T01:53:23;6.90;99.90
14908;DHT22;7545;52.092;7.006;2023-12-14T01:55:48;6.90;99.90
14908;DHT22;7545;52.092;7.006;2023-12-14T01:58:14;7.00;99.90
14908;DHT22;7545;52.092;7.006;2023-12-14T02:00:46;7.00;99.90
14908;DHT22;7545;52.092;7.006;2023-12-14T02:03:15;7.00;99.90
14908;DHT22;7545;52.092;7.006;2023-12-14T02:05:40;7.00;99.90
14908;DHT22;7545;52.092;7.006;2023-12-14T02:08:06;7.00;99.90
14908;DHT22;7545;52.092;7.006;2023-12-14T02:10:32;7.00;99.90
14908;DHT22;7545;52.092;7.006;2023-12-14T02:12:58;6.90;99.90
14908;DHT22;7545;52.092;7.006;2023-12-14T02:15:23;6.90;99.90
14908;DHT22;7545;52.092;7.006;2023-12-14T02:17:49;6.90;99.90
14908;DHT22;7545;52.092;7.006;2023-12-14T02:20:14;6.90;99.90
14908;DHT22;7545;52.092;7.006;2023-12-14T02:22:50;6.90;99.90
14908;DHT22;7545;52.092;7.006;2023-12-14T02:25:16;6.90;99.90
14908;DHT22;7545;52.092;7.006;2023-12-14T02:27:42;6.90;99.90
14908;DHT22;7545;52.092;7.006;2023-12-14T02:30:08;6.90;99.90
14908;DHT22;7545;52.092;7.006;2023-12-14T02:32:34;6.90;99.90
14908;DHT22;7545;52.092;7.006;2023-12-14T02:35:00;6.90;99.90
14908;DHT22;7545;52.092;7.006;2023-12-14T02:37:25;6.90;99.90
14908;DHT22;7545;52.092;7.006;2023-12-14T02:39:51;6.90;99.90
14908;DHT22;7545;52.092;7.006;2023-12-14T02:42:16;6.90;99.90
14908;DHT22;7545;52.092;7.006;2023-12-14T02:44:42;6.90;99.90
14908;DHT22;7545;52.092;7.006;2023-12-14T02:47:07;6.90;99.90
14908;DHT22;7545;52.092;7.006;2023-12-14T02:49:33;6.90;99.90
14908;DHT22;7545;52.092;7.006;2023-12-14T02:51:59;6.90;99.90
14908;DHT22;7545;52.092;7.006;2023-12-14T02:54:24;6.90;99.90
14908;DHT22;7545;52.092;7.006;2023-12-14T02:56:50;6.80;99.90
14908;DHT22;7545;52.092;7.006;2023-12-14T02:59:15;6.90;99.90
14908;DHT22;7545;52.092;7.006;2023-12-14T03:01:41;6.80;99.90
14908;DHT22;7545;52.092;7.006;2023-12-14T03:04:07;6.80;99.90
14908;DHT22;7545;52.092;7.006;2023-12-14T03:06:33;6.80;99.90
14908;DHT22;7545;52.092;7.006;2023-12-14T03:08:59;6.80;99.90
14908;DHT22;7545;52.092;7.006;2023-12-14T03:11:25;6.80;99.90
14908;DHT22;7545;52.092;7.006;2023-12-14T03:13:50;6.80;99.90
14908;DHT22;7545;52.092;7.006;2023-12-14T03:16:16;6.90;99.90
14908;DHT22;7545;52.092;7.006;2023-12-14T03:18:44;6.90;99.90
14908;DHT22;7545;52.092;7.006;2023-12-14T03:21:10;6.90;99.90
14908;DHT22;7545;52.092;7.006;2023-12-14T03:23:36;6.90;99.90
14908;DHT22;7545;52.092;7.006;2023-12-14T03:26:02;6.80;99.90
14908;DHT22;7545;52.092;7.006;2023-12-14T03:28:27;6.80;99.90
14908;DHT22;7545;52.092;7.006;2023-12-14T03:30:53;6.80;99.90
14908;DHT22;7545;52.092;7.006;2023-12-14T03:33:19;6.80;99.90
14908;DHT22;7545;52.092;7.006;2023-12-14T03:35:45;6.80;99.90
14908;DHT22;7545;52.092;7.006;2023-12-14T03:38:14;6.80;99.90
14908;DHT22;7545;52.092;7.006;2023-12-14T03:40:40;6.80;99.90
14908;DHT22;7545;52.092;7.006;2023-12-14T03:43:06;6.80;99.90
14908;DHT22;7545;52.092;7.006;2023-12-14T03:45:31;6.80;99.90
14908;DHT22;7545;52.092;7.006;2023-12-14T03:47:57;6.80;99.90
14908;DHT22;7545;52.092;7.006;2023-12-14T03:50:23;6.80;99.90
14908;DHT22;7545;52.092;7.006;2023-12-14T03:52:48;6.80;99.90
14908;DHT22;7545;52.092;7.006;2023-12-14T03:55:14;6.80;99.90
14908;DHT22;7545;52.092;7.006;2023-12-14T03:57:42;6.80;99.90
14908;DHT22;7545;52.092;7.006;2023-12-14T04:00:12;6.80;99.90
14908;DHT22;7545;52.092;7.006;2023-12-14T04:02:40;6.80;99.90
14908;DHT22;7545;52.092;7.006;2023-12-14T04:05:07;6.70;99.90
14908;DHT22;7545;52.092;7.006;2023-12-14T04:07:38;6.80;99.90
14908;DHT22;7545;52.092;7.006;2023-12-14T04:12:32;6.80;99.90
14908;DHT22;7545;52.092;7.006;2023-12-14T04:14:58;6.70;99.90
14908;DHT22;7545;52.092;7.006;2023-12-14T04:17:23;6.80;99.90
14908;DHT22;7545;52.092;7.006;2023-12-14T04:19:49;6.80;99.90
14908;DHT22;7545;52.092;7.006;2023-12-14T04:22:15;6.80;99.90
14908;DHT22;7545;52.092;7.006;2023-12-14T04:24:41;6.80;99.90
14908;DHT22;7545;52.092;7.006;2023-12-14T04:27:06;6.70;99.90
14908;DHT22;7545;52.092;7.006;2023-12-14T04:29:32;6.70;99.90
14908;DHT22;7545;52.092;7.006;2023-12-14T04:31:57;6.70;99.90
14908;DHT22;7545;52.092;7.006;2023-12-14T04:34:23;6.70;99.90
14908;DHT22;7545;52.092;7.006;2023-12-14T04:36:49;6.70;99.90
14908;DHT22;7545;52.092;7.006;2023-12-14T04:39:15;6.70;99.90
14908;DHT22;7545;52.092;7.006;2023-12-14T04:41:42;6.70;99.90
14908;DHT22;7545;52.092;7.006;2023-12-14T04:44:07;6.70;99.90
14908;DHT22;7545;52.092;7.006;2023-12-14T04:46:35;6.70;99.90
14908;DHT22;7545;52.092;7.006;2023-12-14T04:49:01;6.70;99.90
14908;DHT22;7545;52.092;7.006;2023-12-14T04:51:26;6.70;99.90
14908;DHT22;7545;52.092;7.006;2023-12-14T04:53:52;6.70;99.90
14908;DHT22;7545;52.092;7.006;2023-12-14T04:56:17;6.70;99.90
14908;DHT22;7545;52.092;7.006;2023-12-14T04:58:43;6.70;99.90
14908;DHT22;7545;52.092;7.006;2023-12-14T05:01:08;6.70;99.90
14908;DHT22;7545;52.092;7.006;2023-12-14T05:03:35;6.70;99.90
14908;DHT22;7545;52.092;7.006;2023-12-14T05:06:01;6.70;99.90
14908;DHT22;7545;52.092;7.006;2023-12-14T05:08:27;6.70;99.90
14908;DHT22;7545;52.092;7.006;2023-12-14T05:10:52;6.70;99.90
14908;DHT22;7545;52.092;7.006;2023-12-14T05:13:18;6.70;99.90
14908;DHT22;7545;52.092;7.006;2023-12-14T05:15:43;6.70;99.90
14908;DHT22;7545;52.092;7.006;2023-12-14T05:18:09;6.70;99.90
14908;DHT22;7545;52.092;7.006;2023-12-14T05:20:35;6.70;99.90
14908;DHT22;7545;52.092;7.006;2023-12-14T05:23:01;6.70;99.90
14908;DHT22;7545;52.092;7.006;2023-12-14T05:25:27;6.70;99.90
14908;DHT22;7545;52.092;7.006;2023-12-14T05:27:52;6.70;99.90
14908;DHT22;7545;52.092;7.006;2023-12-14T05:30:18;6.70;99.90
14908;DHT22;7545;52.092;7.006;2023-12-14T05:32:44;6.70;99.90
14908;DHT22;7545;52.092;7.006;2023-12-14T05:35:10;6.70;99.90
14908;DHT22;7545;52.092;7.006;2023-12-14T05:37:36;6.70;99.90
14908;DHT22;7545;52.092;7.006;2023-12-14T05:40:02;6.70;99.90
14908;DHT22;7545;52.092;7.006;2023-12-14T05:42:28;6.70;99.90
14908;DHT22;7545;52.092;7.006;2023-12-14T05:44:54;6.70;99.90
14908;DHT22;7545;52.092;7.006;2023-12-14T05:47:20;6.70;99.90
14908;DHT22;7545;52.092;7.006;2023-12-14T05:49:45;6.70;99.90
14908;DHT22;7545;52.092;7.006;2023-12-14T05:52:11;6.70;99.90
14908;DHT22;7545;52.092;7.006;2023-12-14T05:54:37;6.70;99.90
14908;DHT22;7545;52.092;7.006;2023-12-14T05:57:03;6.60;99.90
14908;DHT22;7545;52.092;7.006;2023-12-14T05:59:29;6.60;99.90
14908;DHT22;7545;52.092;7.006;2023-12-14T06:02:01;6.60;99.90
14908;DHT22;7545;52.092;7.006;2023-12-14T06:04:27;6.70;99.90
14908;DHT22;7545;52.092;7.006;2023-12-14T06:06:53;6.60;99.90
14908;DHT22;7545;52.092;7.006;2023-12-14T06:09:19;6.60;99.90
14908;DHT22;7545;52.092;7.006;2023-12-14T06:11:47;6.60;99.90
14908;DHT22;7545;52.092;7.006;2023-12-14T06:14:13;6.60;99.90
14908;DHT22;7545;52.092;7.006;2023-12-14T06:16:39;6.60;99.90
14908;DHT22;7545;52.092;7.006;2023-12-14T06:19:04;6.60;99.90
14908;DHT22;7545;52.092;7.006;2023-12-14T06:21:30;6.60;99.90
14908;DHT22;7545;52.092;7.006;2023-12-14T06:23:56;6.60;99.90
14908;DHT22;7545;52.092;7.006;2023-12-14T06:26:22;6.60;99.90
14908;DHT22;7545;52.092;7.006;2023-12-14T06:28:48;6.60;99.90
14908;DHT22;7545;52.092;7.006;2023-12-14T06:31:14;6.60;99.90
14908;DHT22;7545;52.092;7.006;2023-12-14T06:33:41;6.60;99.90
14908;DHT22;7545;52.092;7.006;2023-12-14T06:36:08;6.50;99.90
14908;DHT22;7545;52.092;7.006;2023-12-14T06:38:34;6.60;99.90
14908;DHT22;7545;52.092;7.006;2023-12-14T06:41:01;6.60;99.90
14908;DHT22;7545;52.092;7.006;2023-12-14T06:43:27;6.60;99.90
14908;DHT22;7545;52.092;7.006;2023-12-14T06:45:53;6.50;99.90
14908;DHT22;7545;52.092;7.006;2023-12-14T06:48:19;6.50;99.90
14908;DHT22;7545;52.092;7.006;2023-12-14T06:50:45;6.50;99.90
14908;DHT22;7545;52.092;7.006;2023-12-14T06:53:10;6.50;99.90
14908;DHT22;7545;52.092;7.006;2023-12-14T06:55:36;6.50;99.90
14908;DHT22;7545;52.092;7.006;2023-12-14T06:58:02;6.40;99.90
14908;DHT22;7545;52.092;7.006;2023-12-14T07:00:27;6.40;99.90
14908;DHT22;7545;52.092;7.006;2023-12-14T07:02:54;6.50;99.90
14908;DHT22;7545;52.092;7.006;2023-12-14T07:05:20;6.40;99.90
14908;DHT22;7545;52.092;7.006;2023-12-14T07:07:46;6.50;99.90
14908;DHT22;7545;52.092;7.006;2023-12-14T07:10:11;6.50;99.90
14908;DHT22;7545;52.092;7.006;2023-12-14T07:12:37;6.40;99.90
14908;DHT22;7545;52.092;7.006;2023-12-14T07:15:03;6.40;99.90
14908;DHT22;7545;52.092;7.006;2023-12-14T07:17:28;6.40;99.90
14908;DHT22;7545;52.092;7.006;2023-12-14T07:19:54;6.40;99.90
14908;DHT22;7545;52.092;7.006;2023-12-14T07:22:19;6.40;99.90
14908;DHT22;7545;52.092;7.006;2023-12-14T07:24:45;6.40;99.90
14908;DHT22;7545;52.092;7.006;2023-12-14T07:27:10;6.40;99.90
14908;DHT22;7545;52.092;7.006;2023-12-14T07:29:36;6.40;99.90
14908;DHT22;7545;52.092;7.006;2023-12-14T07:32:03;6.40;99.90
14908;DHT22;7545;52.092;7.006;2023-12-14T07:34:28;6.40;99.90
14908;DHT22;7545;52.092;7.006;2023-12-14T07:36:54;6.40;99.90
14908;DHT22;7545;52.092;7.006;2023-12-14T07:39:20;6.40;99.90
14908;DHT22;7545;52.092;7.006;2023-12-14T07:41:45;6.40;99.90
14908;DHT22;7545;52.092;7.006;2023-12-14T07:44:11;6.40;99.90
14908;DHT22;7545;52.092;7.006;2023-12-14T07:46:37;6.40;99.90
14908;DHT22;7545;52.092;7.006;2023-12-14T07:49:07;6.40;99.90
14908;DHT22;7545;52.092;7.006;2023-12-14T07:51:32;6.40;99.90
14908;DHT22;7545;52.092;7.006;2023-12-14T07:53:58;6.40;99.90
14908;DHT22;7545;52.092;7.006;2023-12-14T07:56:23;6.40;99.90
14908;DHT22;7545;52.092;7.006;2023-12-14T07:58:52;6.40;99.90
14908;DHT22;7545;52.092;7.006;2023-12-14T08:01:18;6.30;99.90
14908;DHT22;7545;52.092;7.006;2023-12-14T08:03:44;6.40;99.90
14908;DHT22;7545;52.092;7.006;2023-12-14T08:06:09;6.40;99.90
14908;DHT22;7545;52.092;7.006;2023-12-14T08:08:35;6.40;99.90
14908;DHT22;7545;52.092;7.006;2023-12-14T08:11:01;6.40;99.90
14908;DHT22;7545;52.092;7.006;2023-12-14T08:13:26;6.40;99.90
14908;DHT22;7545;52.092;7.006;2023-12-14T08:15:52;6.40;99.90
14908;DHT22;7545;52.092;7.006;2023-12-14T08:18:17;6.40;99.90
14908;DHT22;7545;52.092;7.006;2023-12-14T08:20:43;6.30;99.90
14908;DHT22;7545;52.092;7.006;2023-12-14T08:23:09;6.30;99.90
14908;DHT22;7545;52.092;7.006;2023-12-14T08:25:34;6.30;99.90
14908;DHT22;7545;52.092;7.006;2023-12-14T08:28:00;6.30;99.90
14908;DHT22;7545;52.092;7.006;2023-12-14T08:30:25;6.30;99.90
14908;DHT22;7545;52.092;7.006;2023-12-14T08:32:51;6.30;99.90
14908;DHT22;7545;52.092;7.006;2023-12-14T08:35:16;6.30;99.90
14908;DHT22;7545;52.092;7.006;2023-12-14T08:37:42;6.30;99.90
14908;DHT22;7545;52.092;7.006;2023-12-14T08:40:09;6.30;99.90
14908;DHT22;7545;52.092;7.006;2023-12-14T08:42:35;6.30;99.90
14908;DHT22;7545;52.092;7.006;2023-12-14T08:45:00;6.30;99.90
14908;DHT22;7545;52.092;7.006;2023-12-14T08:47:26;6.30;99.90
14908;DHT22;7545;52.092;7.006;2023-12-14T08:49:52;6.30;99.90
14908;DHT22;7545;52.092;7.006;2023-12-14T08:52:18;6.30;99.90
14908;DHT22;7545;52.092;7.006;2023-12-14T08:54:44;6.30;99.90
14908;DHT22;7545;52.092;7.006;2023-12-14T08:57:10;6.30;99.90
14908;DHT22;7545;52.092;7.006;2023-12-14T08:59:35;6.30;99.90
14908;DHT22;7545;52.092;7.006;2023-12-14T09:02:01;6.30;99.90
14908;DHT22;7545;52.092;7.006;2023-12-14T09:04:27;6.30;99.90
14908;DHT22;7545;52.092;7.006;2023-12-14T09:06:53;6.30;99.90
14908;DHT22;7545;52.092;7.006;2023-12-14T09:09:18;6.30;99.90
14908;DHT22;7545;52.092;7.006;2023-12-14T09:11:44;6.30;99.90
14908;DHT22;7545;52.092;7.006;2023-12-14T09:14:10;6.30;99.90
14908;DHT22;7545;52.092;7.006;2023-12-14T09:16:35;6.30;99.90
14908;DHT22;7545;52.092;7.006;2023-12-14T09:19:01;6.30;99.90
14908;DHT22;7545;52.092;7.006;2023-12-14T09:21:27;6.30;99.90
14908;DHT22;7545;52.092;7.006;2023-12-14T09:23:52;6.30;99.90
14908;DHT22;7545;52.092;7.006;2023-12-14T09:26:20;6.30;99.90
14908;DHT22;7545;52.092;7.006;2023-12-14T09:28:46;6.30;99.90
14908;DHT22;7545;52.092;7.006;2023-12-14T09:31:11;6.30;99.90
14908;DHT22;7545;52.092;7.006;2023-12-14T09:33:37;6.30;99.90
14908;DHT22;7545;52.092;7.006;2023-12-14T09:36:03;6.30;99.90
14908;DHT22;7545;52.092;7.006;2023-12-14T09:38:29;6.30;99.90
14908;DHT22;7545;52.092;7.006;2023-12-14T09:40:54;6.30;99.90
14908;DHT22;7545;52.092;7.006;2023-12-14T09:43:20;6.30;99.90
14908;DHT22;7545;52.092;7.006;2023-12-14T09:45:47;6.30;99.90
14908;DHT22;7545;52.092;7.006;2023-12-14T09:48:15;6.40;99.90
14908;DHT22;7545;52.092;7.006;2023-12-14T09:50:41;6.40;99.90
14908;DHT22;7545;52.092;7.006;2023-12-14T09:53:07;6.30;99.90
14908;DHT22;7545;52.092;7.006;2023-12-14T09:55:33;6.30;99.90
14908;DHT22;7545;52.092;7.006;2023-12-14T09:57:59;6.30;99.90
14908;DHT22;7545;52.092;7.006;2023-12-14T10:00:36;6.30;99.90
14908;DHT22;7545;52.092;7.006;2023-12-14T10:03:18;6.40;99.90
14908;DHT22;7545;52.092;7.006;2023-12-14T10:05:45;6.40;99.90
14908;DHT22;7545;52.092;7.006;2023-12-14T10:08:10;6.40;99.90
14908;DHT22;7545;52.092;7.006;2023-12-14T10:10:36;6.40;99.90
14908;DHT22;7545;52.092;7.006;2023-12-14T10:13:01;6.40;99.90
14908;DHT22;7545;52.092;7.006;2023-12-14T10:15:27;6.40;99.90
14908;DHT22;7545;52.092;7.006;2023-12-14T10:17:53;6.40;99.90
14908;DHT22;7545;52.092;7.006;2023-12-14T10:20:23;6.40;99.90
14908;DHT22;7545;52.092;7.006;2023-12-14T10:22:49;6.40;99.90
14908;DHT22;7545;52.092;7.006;2023-12-14T10:25:15;6.40;99.90
14908;DHT22;7545;52.092;7.006;2023-12-14T10:27:50;6.30;99.90
14908;DHT22;7545;52.092;7.006;2023-12-14T10:30:18;6.30;99.90
14908;DHT22;7545;52.092;7.006;2023-12-14T10:32:47;6.30;99.90
14908;DHT22;7545;52.092;7.006;2023-12-14T10:35:13;6.30;99.90
14908;DHT22;7545;52.092;7.006;2023-12-14T10:37:42;6.40;99.90
14908;DHT22;7545;52.092;7.006;2023-12-14T10:40:09;6.40;99.90
14908;DHT22;7545;52.092;7.006;2023-12-14T10:42:36;6.40;99.90
14908;DHT22;7545;52.092;7.006;2023-12-14T10:45:03;6.40;99.90
14908;DHT22;7545;52.092;7.006;2023-12-14T10:47:30;6.30;99.90
14908;DHT22;7545;52.092;7.006;2023-12-14T10:49:56;6.30;99.90
14908;DHT22;7545;52.092;7.006;2023-12-14T10:52:23;6.30;99.90
14908;DHT22;7545;52.092;7.006;2023-12-14T10:55:09;6.40;99.90
14908;DHT22;7545;52.092;7.006;2023-12-14T10:57:36;6.40;99.90
14908;DHT22;7545;52.092;7.006;2023-12-14T11:00:05;6.40;99.90
14908;DHT22;7545;52.092;7.006;2023-12-14T11:02:39;6.40;99.90
14908;DHT22;7545;52.092;7.006;2023-12-14T11:05:06;6.40;99.90
14908;DHT22;7545;52.092;7.006;2023-12-14T11:07:54;6.40;99.90
14908;DHT22;7545;52.092;7.006;2023-12-14T11:10:27;6.50;99.90
14908;DHT22;7545;52.092;7.006;2023-12-14T11:13:00;6.50;99.90
14908;DHT22;7545;52.092;7.006;2023-12-14T11:15:25;6.50;99.90
14908;DHT22;7545;52.092;7.006;2023-12-14T11:23:35;6.50;99.90
14908;DHT22;7545;52.092;7.006;2023-12-14T11:26:06;6.50;99.90
14908;DHT22;7545;52.092;7.006;2023-12-14T11:28:36;6.50;99.90
14908;DHT22;7545;52.092;7.006;2023-12-14T11:31:03;6.50;99.90
14908;DHT22;7545;52.092;7.006;2023-12-14T11:33:34;6.50;99.90
14908;DHT22;7545;52.092;7.006;2023-12-14T11:36:02;6.50;99.90
14908;DHT22;7545;52.092;7.006;2023-12-14T11:38:31;6.40;99.90
14908;DHT22;7545;52.092;7.006;2023-12-14T11:40:58;6.40;99.90
14908;DHT22;7545;52.092;7.006;2023-12-14T11:43:24;6.50;99.90
14908;DHT22;7545;52.092;7.006;2023-12-14T11:45:52;6.50;99.90
14908;DHT22;7545;52.092;7.006;2023-12-14T11:48:18;6.60;99.90
14908;DHT22;7545;52.092;7.006;2023-12-14T11:50:45;6.50;99.90
14908;DHT22;7545;52.092;7.006;2023-12-14T11:53:11;6.60;99.90
14908;DHT22;7545;52.092;7.006;2023-12-14T11:55:42;6.60;99.90
14908;DHT22;7545;52.092;7.006;2023-12-14T11:58:08;6.60;99.90
14908;DHT22;7545;52.092;7.006;2023-12-14T12:00:34;6.60;99.90
14908;DHT22;7545;52.092;7.006;2023-12-14T12:05:39;6.70;99.90
14908;DHT22;7545;52.092;7.006;2023-12-14T12:08:05;6.70;99.90
14908;DHT22;7545;52.092;7.006;2023-12-14T12:10:32;6.70;99.90
14908;DHT22;7545;52.092;7.006;2023-12-14T12:13:11;6.70;99.90
14908;DHT22;7545;52.092;7.006;2023-12-14T12:15:36;6.60;99.90
14908;DHT22;7545;52.092;7.006;2023-12-14T12:18:05;6.60;99.90
14908;DHT22;7545;52.092;7.006;2023-12-14T12:20:30;6.60;99.90
14908;DHT22;7545;52.092;7.006;2023-12-14T12:22:57;6.60;99.90
14908;DHT22;7545;52.092;7.006;2023-12-14T12:25:23;6.50;99.90
14908;DHT22;7545;52.092;7.006;2023-12-14T12:27:49;6.60;99.90
14908;DHT22;7545;52.092;7.006;2023-12-14T12:30:14;6.50;99.90
14908;DHT22;7545;52.092;7.006;2023-12-14T12:32:41;6.50;99.90
14908;DHT22;7545;52.092;7.006;2023-12-14T12:35:07;6.50;99.90
14908;DHT22;7545;52.092;7.006;2023-12-14T12:37:33;6.50;99.90
14908;DHT22;7545;52.092;7.006;2023-12-14T12:39:59;6.40;99.90
14908;DHT22;7545;52.092;7.006;2023-12-14T12:42:24;6.50;99.90
14908;DHT22;7545;52.092;7.006;2023-12-14T12:44:51;6.50;99.90
14908;DHT22;7545;52.092;7.006;2023-12-14T12:47:16;6.50;99.90
14908;DHT22;7545;52.092;7.006;2023-12-14T12:49:42;6.50;99.90
14908;DHT22;7545;52.092;7.006;2023-12-14T12:52:09;6.60;99.90
14908;DHT22;7545;52.092;7.006;2023-12-14T12:54:35;6.60;99.90
14908;DHT22;7545;52.092;7.006;2023-12-14T12:57:00;6.60;99.90
14908;DHT22;7545;52.092;7.006;2023-12-14T12:59:26;6.50;99.90
14908;DHT22;7545;52.092;7.006;2023-12-14T13:01:52;6.50;99.90
14908;DHT22;7545;52.092;7.006;2023-12-14T13:04:22;6.50;99.90
14908;DHT22;7545;52.092;7.006;2023-12-14T13:06:48;6.50;99.90
14908;DHT22;7545;52.092;7.006;2023-12-14T13:09:15;6.50;99.90
14908;DHT22;7545;52.092;7.006;2023-12-14T13:11:42;6.50;99.90
14908;DHT22;7545;52.092;7.006;2023-12-14T13:14:08;6.50;99.90
14908;DHT22;7545;52.092;7.006;2023-12-14T13:16:34;6.40;99.90
14908;DHT22;7545;52.092;7.006;2023-12-14T13:19:00;6.50;99.90
14908;DHT22;7545;52.092;7.006;2023-12-14T13:21:26;6.50;99.90
14908;DHT22;7545;52.092;7.006;2023-12-14T13:23:51;6.40;99.90
14908;DHT22;7545;52.092;7.006;2023-12-14T13:26:17;6.50;99.90
14908;DHT22;7545;52.092;7.006;2023-12-14T13:28:43;6.50;99.90
14908;DHT22;7545;52.092;7.006;2023-12-14T13:31:08;6.50;99.90
14908;DHT22;7545;52.092;7.006;2023-12-14T13:33:34;6.50;99.90
14908;DHT22;7545;52.092;7.006;2023-12-14T13:35:59;6.50;99.90
14908;DHT22;7545;52.092;7.006;2023-12-14T13:38:25;6.50;99.90
14908;DHT22;7545;52.092;7.006;2023-12-14T13:40:50;6.50;99.90
14908;DHT22;7545;52.092;7.006;2023-12-14T13:43:16;6.50;99.90
14908;DHT22;7545;52.092;7.006;2023-12-14T13:45:43;6.50;99.90
14908;DHT22;7545;52.092;7.006;2023-12-14T13:48:08;6.50;99.90
14908;DHT22;7545;52.092;7.006;2023-12-14T13:50:34;6.50;99.90
14908;DHT22;7545;52.092;7.006;2023-12-14T13:53:00;6.50;99.90
14908;DHT22;7545;52.092;7.006;2023-12-14T13:55:27;6.50;99.90
14908;DHT22;7545;52.092;7.006;2023-12-14T13:57:52;6.40;99.90
14908;DHT22;7545;52.092;7.006;2023-12-14T14:00:18;6.40;99.90
14908;DHT22;7545;52.092;7.006;2023-12-14T14:02:44;6.50;99.90
14908;DHT22;7545;52.092;7.006;2023-12-14T14:05:13;6.50;99.90
14908;DHT22;7545;52.092;7.006;2023-12-14T14:07:38;6.50;99.90
14908;DHT22;7545;52.092;7.006;2023-12-14T14:10:04;6.50;99.90
14908;DHT22;7545;52.092;7.006;2023-12-14T14:12:30;6.50;99.90
14908;DHT22;7545;52.092;7.006;2023-12-14T14:14:56;6.60;99.90
14908;DHT22;7545;52.092;7.006;2023-12-14T14:17:22;6.60;99.90
14908;DHT22;7545;52.092;7.006;2023-12-14T14:19:47;6.50;99.90
14908;DHT22;7545;52.092;7.006;2023-12-14T14:22:13;6.50;99.90
14908;DHT22;7545;52.092;7.006;2023-12-14T14:24:38;6.50;99.90
14908;DHT22;7545;52.092;7.006;2023-12-14T14:27:04;6.50;99.90
14908;DHT22;7545;52.092;7.006;2023-12-14T14:29:30;6.50;99.90
14908;DHT22;7545;52.092;7.006;2023-12-14T14:31:55;6.50;99.90
14908;DHT22;7545;52.092;7.006;2023-12-14T14:34:21;6.50;99.90
14908;DHT22;7545;52.092;7.006;2023-12-14T14:36:47;6.60;99.90
14908;DHT22;7545;52.092;7.006;2023-12-14T14:39:13;6.50;99.90
14908;DHT22;7545;52.092;7.006;2023-12-14T14:41:38;6.50;99.90
14908;DHT22;7545;52.092;7.006;2023-12-14T14:44:04;6.50;99.90
14908;DHT22;7545;52.092;7.006;2023-12-14T14:46:30;6.50;99.90
14908;DHT22;7545;52.092;7.006;2023-12-14T14:48:55;6.50;99.90
14908;DHT22;7545;52.092;7.006;2023-12-14T14:51:21;6.50;99.90
14908;DHT22;7545;52.092;7.006;2023-12-14T14:53:46;6.50;99.90
14908;DHT22;7545;52.092;7.006;2023-12-14T14:56:13;6.50;99.90
14908;DHT22;7545;52.092;7.006;2023-12-14T14:58:38;6.40;99.90
14908;DHT22;7545;52.092;7.006;2023-12-14T15:01:04;6.60;99.90
14908;DHT22;7545;52.092;7.006;2023-12-14T15:03:30;6.40;99.90
14908;DHT22;7545;52.092;7.006;2023-12-14T15:05:55;6.50;99.90
14908;DHT22;7545;52.092;7.006;2023-12-14T15:08:21;6.50;99.90
14908;DHT22;7545;52.092;7.006;2023-12-14T15:10:47;6.50;99.90
14908;DHT22;7545;52.092;7.006;2023-12-14T15:13:12;6.40;99.90
14908;DHT22;7545;52.092;7.006;2023-12-14T15:15:40;6.40;99.90
14908;DHT22;7545;52.092;7.006;2023-12-14T15:18:05;6.40;99.90
14908;DHT22;7545;52.092;7.006;2023-12-14T15:20:31;6.40;99.90
14908;DHT22;7545;52.092;7.006;2023-12-14T15:22:57;6.40;99.90
14908;DHT22;7545;52.092;7.006;2023-12-14T15:25:22;6.40;99.90
14908;DHT22;7545;52.092;7.006;2023-12-14T15:27:48;6.40;99.90
14908;DHT22;7545;52.092;7.006;2023-12-14T15:30:13;6.40;99.90
14908;DHT22;7545;52.092;7.006;2023-12-14T15:32:40;6.40;99.90
14908;DHT22;7545;52.092;7.006;2023-12-14T15:35:05;6.40;99.90
14908;DHT22;7545;52.092;7.006;2023-12-14T15:37:31;6.40;99.90
14908;DHT22;7545;52.092;7.006;2023-12-14T15:39:57;6.40;99.90
14908;DHT22;7545;52.092;7.006;2023-12-14T15:42:22;6.30;99.90
14908;DHT22;7545;52.092;7.006;2023-12-14T15:44:48;6.30;99.90
14908;DHT22;7545;52.092;7.006;2023-12-14T15:47:14;6.30;99.90
14908;DHT22;7545;52.092;7.006;2023-12-14T15:49:42;6.30;99.90
14908;DHT22;7545;52.092;7.006;2023-12-14T15:52:08;6.30;99.90
14908;DHT22;7545;52.092;7.006;2023-12-14T15:54:34;6.30;99.90
14908;DHT22;7545;52.092;7.006;2023-12-14T15:56:59;6.30;99.90
14908;DHT22;7545;52.092;7.006;2023-12-14T15:59:25;6.30;99.90
14908;DHT22;7545;52.092;7.006;2023-12-14T16:01:51;6.30;99.90
14908;DHT22;7545;52.092;7.006;2023-12-14T16:04:17;6.30;99.90
14908;DHT22;7545;52.092;7.006;2023-12-14T16:06:46;6.30;99.90